ID Time Temp Humidity Light PM2.5 PM10 Voltage Extra Firmware Position Fcnt TTN version Gateways Distance RSSI LSNR Radiosettings
2026-05-08 19:58:10 16.0625°C 74.25% 3.38V v255 52.1018 / 5.12558 36394 ttn.v3 0.686km -117 -13 868.5MHz, SF9BW125, 4/5CR
2026-05-08 19:42:14 16.5°C 89.8125% 3.38V v255 52.1018 / 5.12558 36393 ttn.v3 2.009km -107 -3.25 867.7MHz, SF9BW125, 4/5CR
2026-05-08 19:26:17 15.0625°C 58.1875% 3.38V v255 52.1018 / 5.12558 36392 ttn.v3 0.686km -121 -14 868.3MHz, SF9BW125, 4/5CR
2026-05-08 19:10:21 15.1875°C 64.4375% 3.38V v255 52.1018 / 5.12558 36391 ttn.v3 0.686km -116 -13.2 867.5MHz, SF9BW125, 4/5CR
2026-05-08 18:38:29 15.125°C 64.1875% 3.38V v255 52.1018 / 5.12558 36389 ttn.v3 2.009km -109 -3.5 867.3MHz, SF9BW125, 4/5CR
2026-05-08 18:06:36 15.25°C 55.5625% 3.38V v255 52.1018 / 5.12558 36387 ttn.v3 2.009km -102 -2.25 867.1MHz, SF9BW125, 4/5CR
0.686km -121 -11 867.1MHz, SF9BW125, 4/5CR
- -115 -13.5 867.1MHz, SF9BW125, 4/5CR
- -125 -14 867.1MHz, SF9BW125, 4/5CR
2026-05-08 17:34:43 15.5625°C 58.625% 3.38V v255 52.1018 / 5.12558 36385 ttn.v3 2.009km -102 -11 867.9MHz, SF9BW125, 4/5CR
0.686km -120 -12.8 867.9MHz, SF9BW125, 4/5CR
2026-05-08 17:19:40 15.6875°C 88.5% 3.38V v255 52.1018 / 5.12558 36384 ttn.v3 2.009km -104 -7.75 868.1MHz, SF12BW125, 4/5CR
0.686km -119 -12.8 868.1MHz, SF12BW125, 4/5CR
- -114 -19 868.1MHz, SF12BW125, 4/5CR
- -115 -20.25 868.1MHz, SF12BW125, 4/5CR
2026-05-08 17:02:53 15.9375°C 95.0625% 3.38V v255 52.1016 / 5.12537 36383 ttn.v3 0.672km -120 -12.2 867.7MHz, SF9BW125, 4/5CR
2026-05-08 16:46:57 16.3125°C 8.625% 3.38V v255 52.1016 / 5.12537 36382 ttn.v3 0.672km -118 -11 868.5MHz, SF9BW125, 4/5CR
2026-05-08 15:59:07 16.125°C 67.625% 3.38V v255 52.1016 / 5.12537 36379 ttn.v3 0.672km -119 -11.8 867.3MHz, SF9BW125, 4/5CR
2026-05-08 15:27:14 15.875°C 66.875% 3.38V v255 52.1016 / 5.12537 36377 ttn.v3 0.672km -121 -10.8 867.1MHz, SF9BW125, 4/5CR
2.015km -107 -11.75 867.1MHz, SF9BW125, 4/5CR
2026-05-08 14:55:21 15.9375°C 108.562% 3.38V v255 52.1016 / 5.12537 36375 ttn.v3 0.672km -120 -11.5 867.9MHz, SF9BW125, 4/5CR
2026-05-08 14:39:25 16.25°C 78.1875% 3.38V v255 52.1016 / 5.12537 36374 ttn.v3 0.672km -123 -11.8 868.3MHz, SF9BW125, 4/5CR
2026-05-08 14:23:28 16.5°C -3.875% 3.38V v255 52.1016 / 5.12537 36373 ttn.v3 2.015km -108 -7.5 867.7MHz, SF9BW125, 4/5CR
- -124 -9.75 867.7MHz, SF9BW125, 4/5CR
0.672km -120 -13.8 867.7MHz, SF9BW125, 4/5CR
2026-05-08 14:07:32 16.75°C 92.25% 3.38V v255 52.1016 / 5.12537 36372 ttn.v3 0.672km -121 -12 868.1MHz, SF9BW125, 4/5CR
2026-05-08 13:51:35 16.8125°C 98.9375% 3.38V v255 52.1016 / 5.12537 36371 ttn.v3 0.672km -118 -13 867.5MHz, SF9BW125, 4/5CR
2026-05-08 13:35:38 16.8125°C 25.125% 3.38V v255 52.1016 / 5.12537 36370 ttn.v3 0.672km -118 -11.2 868.5MHz, SF9BW125, 4/5CR
2026-05-08 13:19:41 16.6875°C 85.25% 3.38V v255 52.1016 / 5.12537 36369 ttn.v3 2.015km -109 -4 867.3MHz, SF9BW125, 4/5CR
0.672km -120 -11.2 867.3MHz, SF9BW125, 4/5CR
2026-05-08 12:47:48 17°C 21.25% 3.38V v255 52.1016 / 5.12537 36367 ttn.v3 0.672km -121 -11 867.1MHz, SF9BW125, 4/5CR
2026-05-08 12:31:51 16.9375°C 113.438% 3.38V v255 52.1016 / 5.12537 36366 ttn.v3 2.015km -105 -8.5 868.1MHz, SF9BW125, 4/5CR
0.672km -120 -12.2 868.1MHz, SF9BW125, 4/5CR
2026-05-08 12:15:55 16.375°C -5.125% 3.38V v255 52.1016 / 5.12537 36365 ttn.v3 2.015km -105 -1.75 867.9MHz, SF9BW125, 4/5CR
2026-05-08 11:44:01 16.4375°C 87.5625% 3.38V v255 52.1016 / 5.12537 36363 ttn.v3 0.672km -120 -15 867.7MHz, SF9BW125, 4/5CR
2026-05-08 11:12:08 15.25°C 98.8125% 3.38V v255 52.1016 / 5.12537 36361 ttn.v3 0.672km -119 -10.8 867.5MHz, SF9BW125, 4/5CR
2026-05-08 10:56:12 14.75°C 67.625% 3.38V v255 52.1016 / 5.12537 36360 ttn.v3 2.015km -99 -9.25 868.1MHz, SF9BW125, 4/5CR
0.672km -121 -10.2 868.1MHz, SF9BW125, 4/5CR
2026-05-08 10:40:16 14.125°C 45.875% 3.38V v255 52.1016 / 5.12537 36359 ttn.v3 0.672km -118 -10.2 867.3MHz, SF9BW125, 4/5CR
2026-05-08 10:24:21 13.25°C 45.75% 3.38V v255 52.1016 / 5.12537 36358 ttn.v3 0.672km -118 -12.2 868.5MHz, SF9BW125, 4/5CR
2026-05-08 10:08:25 12.6875°C 45.6875% 3.38V v255 52.1016 / 5.12537 36357 ttn.v3 2.015km -110 -7.75 867.1MHz, SF9BW125, 4/5CR
0.672km -119 -10 867.1MHz, SF9BW125, 4/5CR
2026-05-08 09:36:35 11.8125°C 45.625% 3.39V v255 52.1016 / 5.12537 36355 ttn.v3 2.015km -103 -5 867.9MHz, SF9BW125, 4/5CR
0.672km -121 -13.5 867.9MHz, SF9BW125, 4/5CR
2026-05-08 09:20:40 11.4375°C 45.5625% 3.38V v255 52.1016 / 5.12537 36354 ttn.v3 2.015km -103 -11 868.1MHz, SF9BW125, 4/5CR
0.672km -120 -14 868.1MHz, SF9BW125, 4/5CR
2026-05-08 09:04:45 11.125°C 45.5% 3.38V v255 52.1016 / 5.12537 36353 ttn.v3 0.672km -120 -9.8 867.7MHz, SF9BW125, 4/5CR
2026-05-08 08:48:50 10.6875°C 45.5% 3.38V v255 52.1016 / 5.12537 36352 ttn.v3 0.672km -119 -12.8 868.5MHz, SF9BW125, 4/5CR
2026-05-08 08:32:55 10.4375°C 45.4375% 3.39V v255 52.1016 / 5.12537 36351 ttn.v3 0.672km -119 -13.2 867.5MHz, SF9BW125, 4/5CR
2026-05-08 08:01:06 10.125°C 45.4375% 3.38V v255 52.1016 / 5.12537 36349 ttn.v3 0.672km -120 -13.2 867.3MHz, SF9BW125, 4/5CR
2026-05-08 07:45:12 10.0625°C 45.4375% 3.39V v255 52.1016 / 5.12537 36348 ttn.v3 0.672km -121 -11 868.1MHz, SF9BW125, 4/5CR
2.015km -107 -11.75 868.1MHz, SF9BW125, 4/5CR
2026-05-08 06:57:28 9.75°C 45.375% 3.38V v255 52.1016 / 5.12537 36345 ttn.v3 0.672km -121 -11.8 867.9MHz, SF9BW125, 4/5CR
2026-05-08 06:25:39 9.8125°C 45.375% 3.39V v255 52.1016 / 5.12537 36343 ttn.v3 2.015km -104 -5.5 867.7MHz, SF9BW125, 4/5CR
- -121 -9.25 867.7MHz, SF9BW125, 4/5CR
2026-05-08 06:09:44 9.875°C 45.375% 3.38V v255 52.1016 / 5.12537 36342 ttn.v3 2.015km -105 -8.25 868.1MHz, SF9BW125, 4/5CR
0.672km -121 -12 868.1MHz, SF9BW125, 4/5CR
2026-05-08 05:22:00 10.125°C 45.4375% 3.38V v255 52.1016 / 5.12537 36339 ttn.v3 2.015km -107 -4.5 867.3MHz, SF9BW125, 4/5CR
0.672km -119 -9 867.3MHz, SF9BW125, 4/5CR
2026-05-08 04:50:11 10.3125°C 45.4375% 3.39V v255 52.1016 / 5.12537 36337 ttn.v3 2.015km -104 0 867.1MHz, SF9BW125, 4/5CR
0.672km -120 -9.5 867.1MHz, SF9BW125, 4/5CR
2026-05-08 04:34:16 10.3125°C 58.1875% 3.38V v255 52.1016 / 5.12537 36336 ttn.v3 0.672km -120 -12.2 868.1MHz, SF9BW125, 4/5CR
2026-05-08 04:18:21 10.4375°C 88.1875% 3.38V v255 52.1016 / 5.12537 36335 ttn.v3 2.015km -111 -1.5 867.9MHz, SF9BW125, 4/5CR
0.672km -121 -12.5 867.9MHz, SF9BW125, 4/5CR
2026-05-08 04:02:26 10.5°C 114.875% 3.38V v255 52.1016 / 5.12537 36334 ttn.v3 0.672km -118 -13.8 868.5MHz, SF9BW125, 4/5CR
2.015km -95 -14.75 868.5MHz, SF9BW125, 4/5CR
2026-05-08 03:46:32 10.625°C 48.875% 3.38V v255 52.1016 / 5.12537 36333 ttn.v3 2.015km -105 -8 867.7MHz, SF9BW125, 4/5CR
0.672km -120 -10.8 867.7MHz, SF9BW125, 4/5CR
2026-05-08 03:14:42 10.75°C 105.188% 3.39V v255 52.1016 / 5.12537 36331 ttn.v3 0.672km -117 -14 867.5MHz, SF9BW125, 4/5CR
2026-05-08 02:58:47 10.875°C 110.938% 3.38V v255 52.1016 / 5.12537 36330 ttn.v3 0.672km -120 -11.2 868.1MHz, SF9BW125, 4/5CR
2026-05-08 02:26:57 11.125°C 117.312% 3.38V v255 52.1016 / 5.12537 36328 ttn.v3 0.672km -119 -12 868.5MHz, SF9BW125, 4/5CR
2.015km -92 -12.5 868.5MHz, SF9BW125, 4/5CR
2026-05-08 02:11:02 11.25°C -5.375% 3.38V v255 52.1016 / 5.12537 36327 ttn.v3 2.015km -107 -0.5 867.1MHz, SF9BW125, 4/5CR
0.672km -120 -8.8 867.1MHz, SF9BW125, 4/5CR
2026-05-08 01:23:17 11.4375°C 29.125% 3.38V v255 52.1016 / 5.12537 36324 ttn.v3 0.672km -121 -13.8 868.1MHz, SF9BW125, 4/5CR
2026-05-08 01:07:22 11.5625°C 39.9375% 3.38V v255 52.1016 / 5.12537 36323 ttn.v3 0.672km -119 -13.5 867.7MHz, SF9BW125, 4/5CR
2026-05-08 00:51:27 11.625°C 60.75% 3.38V v255 52.1016 / 5.12537 36322 ttn.v3 - -113 -14 868.5MHz, SF9BW125, 4/5CR
2026-05-08 00:35:32 11.75°C 61.0625% 3.38V v255 52.1016 / 5.12537 36321 ttn.v3 0.672km -119 -12.5 867.5MHz, SF9BW125, 4/5CR
2026-05-08 00:03:41 12°C 94.3125% 3.38V v255 52.1016 / 5.12537 36319 ttn.v3 0.672km -120 -13.2 867.3MHz, SF9BW125, 4/5CR
2026-05-07 23:31:51 12.1875°C -4% 3.38V v255 52.1016 / 5.12537 36317 ttn.v3 2.015km -104 -2.5 867.1MHz, SF9BW125, 4/5CR
0.672km -119 -10.2 867.1MHz, SF9BW125, 4/5CR
2026-05-07 23:15:55 12.25°C 114.625% 3.38V v255 52.1016 / 5.12537 36316 ttn.v3 0.672km -120 -12.5 868.5MHz, SF9BW125, 4/5CR
2026-05-07 23:00:00 12.4375°C 1.375% 3.38V v255 52.1016 / 5.12537 36315 ttn.v3 2.015km -110 0.5 867.9MHz, SF9BW125, 4/5CR
0.672km -121 -12.5 867.9MHz, SF9BW125, 4/5CR
2026-05-07 22:28:09 12.6875°C 13.3125% 3.38V v255 52.1016 / 5.12537 36313 ttn.v3 0.672km -120 -13 867.7MHz, SF9BW125, 4/5CR
2026-05-07 22:12:14 12.8125°C 16.75% 3.38V v255 52.1016 / 5.12537 36312 ttn.v3 0.672km -121 -11.5 868.1MHz, SF9BW125, 4/5CR
2026-05-07 21:40:23 13.0625°C 15.0625% 3.38V v255 52.1016 / 5.12537 36310 ttn.v3 0.672km -119 -10.5 868.5MHz, SF9BW125, 4/5CR
2.015km -95 -12.75 868.5MHz, SF9BW125, 4/5CR
2026-05-07 21:24:27 13.125°C 17.75% 3.38V v255 52.1016 / 5.12537 36309 ttn.v3 - -120 -6.75 867.3MHz, SF9BW125, 4/5CR
0.672km -119 -12.8 867.3MHz, SF9BW125, 4/5CR
2026-05-07 20:52:36 13.5625°C 14.1875% 3.38V v255 52.1016 / 5.12537 36307 ttn.v3 2.015km -111 -2.25 867.1MHz, SF9BW125, 4/5CR
- -123 -8.75 867.1MHz, SF9BW125, 4/5CR
0.672km -121 -10 867.1MHz, SF9BW125, 4/5CR
2026-05-07 20:36:40 13.6875°C -0.25% 3.38V v255 52.1016 / 5.12537 36306 ttn.v3 2.015km -85 -6.75 868.1MHz, SF9BW125, 4/5CR
2026-05-07 20:20:44 13.9375°C 3.875% 3.38V v255 52.1016 / 5.12537 36305 ttn.v3 2.015km -108 -11.25 867.9MHz, SF9BW125, 4/5CR
2026-05-07 20:04:48 14.0625°C -5.375% 3.38V v255 52.1016 / 5.12537 36304 ttn.v3 0.672km -118 -12.8 868.5MHz, SF9BW125, 4/5CR
2026-05-07 19:48:52 14.125°C -4.75% 3.38V v255 52.1016 / 5.12537 36303 ttn.v3 2.015km -107 -8.25 867.7MHz, SF9BW125, 4/5CR
- -122 -11 867.7MHz, SF9BW125, 4/5CR
2026-05-07 19:17:01 14.3125°C 102.688% 3.38V v255 52.1016 / 5.12537 36301 ttn.v3 0.672km -118 -13 867.5MHz, SF9BW125, 4/5CR
2026-05-07 19:01:05 14.4375°C 102.062% 3.38V v255 52.1016 / 5.12537 36300 ttn.v3 2.015km -110 -6.5 868.1MHz, SF9BW125, 4/5CR
2026-05-07 18:45:09 14.625°C 101.938% 3.38V v255 52.1016 / 5.12537 36299 ttn.v3 2.015km -105 -1 867.3MHz, SF9BW125, 4/5CR
0.672km -120 -13.2 867.3MHz, SF9BW125, 4/5CR
2026-05-07 18:29:13 14.9375°C 90.4375% 3.38V v255 52.1016 / 5.12537 36298 ttn.v3 0.672km -118 -12.2 868.5MHz, SF9BW125, 4/5CR
2026-05-07 18:13:16 15.3125°C 88.75% 3.38V v255 52.1016 / 5.12537 36297 ttn.v3 2.015km -104 4.75 867.1MHz, SF9BW125, 4/5CR
0.672km -120 -10.2 867.1MHz, SF9BW125, 4/5CR
2026-05-07 17:57:20 16.0625°C 81.9375% 3.38V v255 52.1016 / 5.12537 36296 ttn.v3 - -110 -12.5 868.3MHz, SF9BW125, 4/5CR
2026-05-07 17:41:23 17.1875°C 79.6875% 3.38V v255 52.1016 / 5.12537 36295 ttn.v3 2.015km -107 -2.5 867.9MHz, SF9BW125, 4/5CR
2026-05-07 17:25:26 18.5625°C 78.625% 3.38V v255 52.1016 / 5.12537 36294 ttn.v3 2.015km -109 -6.75 868.1MHz, SF9BW125, 4/5CR
0.672km -121 -14 868.1MHz, SF9BW125, 4/5CR
2026-05-07 17:09:29 16.625°C 91.6875% 3.38V v255 52.1016 / 5.12537 36293 ttn.v3 2.015km -102 -5.25 867.7MHz, SF9BW125, 4/5CR
2026-05-07 16:53:33 15.8125°C 91.125% 3.38V v255 52.1016 / 5.12537 36292 ttn.v3 - -113 -13.5 868.5MHz, SF9BW125, 4/5CR
2026-05-07 16:37:36 15.375°C 97.8125% 3.38V v255 52.1016 / 5.12537 36291 ttn.v3 0.672km -118 -11.8 867.5MHz, SF9BW125, 4/5CR
2026-05-07 16:05:44 15.625°C 89.5% 3.38V v255 52.1016 / 5.12537 36289 ttn.v3 2.015km -101 -4.5 867.3MHz, SF9BW125, 4/5CR
- -119 -8.75 867.3MHz, SF9BW125, 4/5CR
0.672km -119 -11.5 867.3MHz, SF9BW125, 4/5CR
2026-05-07 15:50:21 16.0625°C 82.8125% 3.38V v255 52.1016 / 5.12537 36288 ttn.v3 2.015km -99 -6.75 868.1MHz, SF12BW125, 4/5CR
- -114 -14.5 868.1MHz, SF12BW125, 4/5CR
0.672km -120 -15.8 868.1MHz, SF12BW125, 4/5CR
2026-05-07 15:33:52 16.3125°C 87.0625% 3.38V v255 52.1017 / 5.12558 36287 ttn.v3 0.676km -121 -9 867.1MHz, SF9BW125, 4/5CR
2026-05-07 15:01:59 16.375°C 89.1875% 3.38V v255 52.1017 / 5.12558 36285 ttn.v3 2.005km -104 -7.25 867.9MHz, SF9BW125, 4/5CR
- -114 -12.75 867.9MHz, SF9BW125, 4/5CR
2026-05-07 14:30:05 17.6875°C 75.875% 3.38V v255 52.1017 / 5.12558 36283 ttn.v3 2.005km -113 -4.5 867.7MHz, SF9BW125, 4/5CR
- -124 -11 867.7MHz, SF9BW125, 4/5CR
0.676km -118 -13.2 867.7MHz, SF9BW125, 4/5CR
2026-05-07 13:26:18 16°C 117.438% 3.38V v255 52.1017 / 5.12558 36279 ttn.v3 2.005km -101 -2.75 867.3MHz, SF9BW125, 4/5CR
2026-05-07 12:54:26 14.625°C 103.188% 3.38V v255 52.1017 / 5.12558 36277 ttn.v3 2.005km -104 -4.5 867.1MHz, SF9BW125, 4/5CR
0.676km -120 -12 867.1MHz, SF9BW125, 4/5CR
2026-05-07 12:38:30 14.4375°C -3.8125% 3.38V v255 52.1017 / 5.12558 36276 ttn.v3 2.005km -107 -8 868.1MHz, SF9BW125, 4/5CR
0.676km -120 -14.8 868.1MHz, SF9BW125, 4/5CR
2026-05-07 11:50:41 15.6875°C 12.3125% 3.38V v255 52.1017 / 5.12558 36273 ttn.v3 2.005km -95 -6.5 867.7MHz, SF9BW125, 4/5CR
0.676km -119 -13.8 867.7MHz, SF9BW125, 4/5CR
2026-05-07 10:46:57 13.6875°C 74.75% 3.38V v255 52.1017 / 5.12558 36269 ttn.v3 0.676km -120 -10.5 867.3MHz, SF9BW125, 4/5CR
2.005km -103 -10.75 867.3MHz, SF9BW125, 4/5CR
2026-05-07 10:31:02 13.25°C 67.9375% 3.38V v255 52.1017 / 5.12558 36268 ttn.v3 0.676km -120 -13.2 868.5MHz, SF9BW125, 4/5CR
2026-05-07 09:43:16 11.75°C 45.625% 3.38V v255 52.1017 / 5.12558 36265 ttn.v3 2.005km -110 -3.25 867.9MHz, SF9BW125, 4/5CR
0.676km -120 -12 867.9MHz, SF9BW125, 4/5CR
2026-05-07 09:27:21 11.375°C 45.5625% 3.38V v255 52.1017 / 5.12558 36264 ttn.v3 0.676km -121 -12.5 868.1MHz, SF9BW125, 4/5CR
2026-05-07 09:11:26 10.9375°C 45.5% 3.38V v255 52.1017 / 5.12558 36263 ttn.v3 2.005km -108 -6.5 867.7MHz, SF9BW125, 4/5CR
0.676km -119 -14.5 867.7MHz, SF9BW125, 4/5CR
2026-05-07 08:07:47 8.625°C 45.25% 3.39V v255 52.1017 / 5.12558 36259 ttn.v3 2.005km -103 -6.25 867.3MHz, SF9BW125, 4/5CR
0.676km -118 -12.5 867.3MHz, SF9BW125, 4/5CR
2026-05-07 07:51:53 8.125°C 45.1875% 3.39V v255 52.1017 / 5.12558 36258 ttn.v3 2.005km -105 -5.75 868.1MHz, SF9BW125, 4/5CR
2026-05-07 07:35:59 7.8125°C 45.1875% 3.39V v255 52.1017 / 5.12558 36257 ttn.v3 0.676km -119 -12.8 867.1MHz, SF9BW125, 4/5CR
2026-05-07 07:20:05 7.625°C 45.125% 3.39V v255 52.1017 / 5.12558 36256 ttn.v3 0.676km -118 -12 868.5MHz, SF9BW125, 4/5CR
2026-05-07 07:04:11 7.625°C 45.125% 3.39V v255 52.1017 / 5.12558 36255 ttn.v3 2.005km -108 -1.75 867.9MHz, SF9BW125, 4/5CR
2026-05-07 06:16:29 7°C 45.0625% 3.39V v255 52.1017 / 5.12558 36252 ttn.v3 2.005km -109 -6.75 868.1MHz, SF9BW125, 4/5CR
2026-05-07 06:00:36 6.8125°C 45.0625% 3.39V v255 52.1017 / 5.12558 36251 ttn.v3 0.676km -119 -13.8 867.5MHz, SF9BW125, 4/5CR
2026-05-07 05:44:42 6.75°C 45.0625% 3.39V v255 52.1017 / 5.12558 36250 ttn.v3 0.676km -120 -12.8 868.5MHz, SF9BW125, 4/5CR
2026-05-07 05:28:48 6.75°C 45.0625% 3.39V v255 52.1017 / 5.12558 36249 ttn.v3 2.005km -99 -8.25 867.3MHz, SF9BW125, 4/5CR
0.676km -119 -11.2 867.3MHz, SF9BW125, 4/5CR
- -121 -12.25 867.3MHz, SF9BW125, 4/5CR
2026-05-07 04:57:01 6.8125°C 45.0625% 3.39V v255 52.1017 / 5.12558 36247 ttn.v3 0.676km -121 -12 867.1MHz, SF9BW125, 4/5CR
2026-05-07 04:25:13 7.125°C 45.125% 3.39V v255 52.1017 / 5.12558 36245 ttn.v3 2.005km -109 -3.5 867.9MHz, SF9BW125, 4/5CR
2026-05-07 04:09:19 7.375°C 45.125% 3.39V v255 52.1017 / 5.12558 36244 ttn.v3 0.676km -118 -12.5 868.5MHz, SF9BW125, 4/5CR
2026-05-07 03:53:25 7.6875°C 45.1875% 3.39V v255 52.1017 / 5.12558 36243 ttn.v3 2.005km -104 -6.25 867.7MHz, SF9BW125, 4/5CR
2026-05-07 03:21:37 8.375°C 45.25% 3.39V v255 52.1017 / 5.12558 36241 ttn.v3 0.676km -120 -12.8 867.5MHz, SF9BW125, 4/5CR
2026-05-07 02:49:48 8.6875°C 52.375% 3.39V v255 52.1017 / 5.12558 36239 ttn.v3 2.005km -105 -4.25 867.3MHz, SF9BW125, 4/5CR
0.676km -120 -12.2 867.3MHz, SF9BW125, 4/5CR
2026-05-07 02:33:54 8.75°C 37.6875% 3.39V v255 52.1017 / 5.12558 36238 ttn.v3 0.676km -120 -13.8 868.5MHz, SF9BW125, 4/5CR
2026-05-07 02:17:59 9°C 102.062% 3.38V v255 52.1017 / 5.12558 36237 ttn.v3 2.005km -105 -6.75 867.1MHz, SF9BW125, 4/5CR
0.676km -121 -12 867.1MHz, SF9BW125, 4/5CR
2026-05-07 01:46:10 9.6875°C 49.25% 3.38V v255 52.1017 / 5.12558 36235 ttn.v3 2.005km -109 -10.25 867.9MHz, SF9BW125, 4/5CR
0.676km -119 -12.8 867.9MHz, SF9BW125, 4/5CR
2026-05-07 01:30:16 10.0625°C 54.9375% 3.39V v255 52.1017 / 5.12558 36234 ttn.v3 0.676km -120 -11 868.1MHz, SF9BW125, 4/5CR
2026-05-07 00:10:42 10.8125°C 114.5% 3.39V v255 52.1017 / 5.12558 36229 ttn.v3 2.005km -109 -6.75 867.3MHz, SF9BW125, 4/5CR
0.676km -120 -12.2 867.3MHz, SF9BW125, 4/5CR
2026-05-06 23:54:47 11°C -2.375% 3.38V v255 52.1017 / 5.12558 36228 ttn.v3 2.005km -107 -4.5 868.1MHz, SF9BW125, 4/5CR
0.676km -120 -11.5 868.1MHz, SF9BW125, 4/5CR
2026-05-06 23:22:57 11.25°C 8.125% 3.38V v255 52.1017 / 5.12558 36226 ttn.v3 0.676km -118 -10 868.5MHz, SF9BW125, 4/5CR
2026-05-06 23:07:02 11.3125°C 13.125% 3.38V v255 52.1017 / 5.12558 36225 ttn.v3 2.005km -108 -5 867.9MHz, SF9BW125, 4/5CR
- -127 -11.75 867.9MHz, SF9BW125, 4/5CR
0.676km -121 -13.2 867.9MHz, SF9BW125, 4/5CR
2026-05-06 22:35:12 11.5625°C 2.625% 3.38V v255 52.1017 / 5.12558 36223 ttn.v3 2.005km -107 -6 867.7MHz, SF9BW125, 4/5CR
2026-05-06 22:19:17 11.75°C 10% 3.38V v255 52.1017 / 5.12558 36222 ttn.v3 0.676km -121 -12 868.1MHz, SF9BW125, 4/5CR
2026-05-06 22:03:21 11.875°C 115.625% 3.38V v255 52.1017 / 5.12558 36221 ttn.v3 0.676km -119 -12.5 867.5MHz, SF9BW125, 4/5CR
2026-05-06 20:59:40 12.125°C 13.1875% 3.38V v255 52.1017 / 5.12558 36217 ttn.v3 0.676km -120 -9.2 867.1MHz, SF9BW125, 4/5CR
2026-05-06 20:43:45 12.25°C 11.3125% 3.38V v255 52.1017 / 5.12558 36216 ttn.v3 2.005km -101 -6.75 868.1MHz, SF9BW125, 4/5CR
2026-05-06 20:27:50 12.375°C -4.8125% 3.38V v255 52.1017 / 5.12558 36215 ttn.v3 2.005km -109 -5.75 867.9MHz, SF9BW125, 4/5CR
0.676km -121 -13.8 867.9MHz, SF9BW125, 4/5CR
2026-05-06 20:11:54 12.5625°C 108.625% 3.38V v255 52.1017 / 5.12558 36214 ttn.v3 0.676km -119 -11.8 868.5MHz, SF9BW125, 4/5CR
2026-05-06 19:55:59 12.8125°C 110.375% 3.38V v255 52.1017 / 5.12558 36213 ttn.v3 0.676km -119 -12.8 867.7MHz, SF9BW125, 4/5CR
2026-05-06 19:40:03 12.9375°C 103.375% 3.38V v255 52.1017 / 5.12558 36212 ttn.v3 - -113 -12.75 868.3MHz, SF9BW125, 4/5CR
2026-05-06 19:08:13 13.3125°C 99.875% 3.38V v255 52.1017 / 5.12558 36210 ttn.v3 2.005km -102 -3.25 868.1MHz, SF9BW125, 4/5CR
2026-05-06 18:52:17 13.5625°C 97.375% 3.38V v255 52.1017 / 5.12558 36209 ttn.v3 2.005km -103 -5.25 867.3MHz, SF9BW125, 4/5CR
0.676km -120 -10.8 867.3MHz, SF9BW125, 4/5CR
2026-05-06 18:20:25 13.875°C 90.3125% 3.38V v255 52.1017 / 5.12558 36207 ttn.v3 2.005km -105 -0.25 867.1MHz, SF9BW125, 4/5CR
0.676km -120 -9 867.1MHz, SF9BW125, 4/5CR
2026-05-06 18:04:29 14.0625°C 90.5625% 3.38V v255 52.1017 / 5.12558 36206 ttn.v3 0.676km -120 -11.5 868.3MHz, SF9BW125, 4/5CR
2026-05-06 17:48:33 14.1875°C 83.375% 3.38V v255 52.1017 / 5.12558 36205 ttn.v3 0.676km -121 -11.2 867.9MHz, SF9BW125, 4/5CR
2026-05-06 17:32:37 14.375°C 83.3125% 3.38V v255 52.1017 / 5.12558 36204 ttn.v3 0.676km -121 -13.5 868.1MHz, SF9BW125, 4/5CR
2026-05-06 17:16:41 14.125°C 89.625% 3.38V v255 52.1017 / 5.12558 36203 ttn.v3 2.005km -104 -2 867.7MHz, SF9BW125, 4/5CR
0.676km -118 -13 867.7MHz, SF9BW125, 4/5CR
2026-05-06 17:00:46 13.8125°C 92.0625% 3.38V v255 52.1017 / 5.12558 36202 ttn.v3 0.676km -120 -11.5 868.5MHz, SF9BW125, 4/5CR
2026-05-06 16:12:58 13.625°C 90.0625% 3.38V v255 52.1017 / 5.12558 36199 ttn.v3 0.676km -120 -10 867.3MHz, SF9BW125, 4/5CR
2026-05-06 15:57:03 13.4375°C 90.3125% 3.38V v255 52.1017 / 5.12558 36198 ttn.v3 0.676km -120 -11 868.1MHz, SF9BW125, 4/5CR
2026-05-06 15:41:07 13.6875°C 87.375% 3.38V v255 52.1017 / 5.12558 36197 ttn.v3 0.676km -119 -9.5 867.1MHz, SF9BW125, 4/5CR
- -115 -12.5 867.1MHz, SF9BW125, 4/5CR
2026-05-06 15:25:11 14°C 87.625% 3.38V v255 52.1017 / 5.12558 36196 ttn.v3 0.676km -120 -12 868.5MHz, SF9BW125, 4/5CR
2026-05-06 14:22:15 15.0625°C 80.6875% 3.38V v255 52.1017 / 5.12558 36192 ttn.v3 - -120 -11.25 868.1MHz, SF12BW125, 4/5CR
0.676km -121 -15.8 868.1MHz, SF12BW125, 4/5CR
2026-05-06 13:49:37 15.3125°C 72.6875% 3.38V v255 52.1017 / 5.12564 36190 ttn.v3 0.674km -118 -13.2 868.5MHz, SF9BW125, 4/5CR
2026-05-06 13:01:48 15.625°C 83.4375% 3.38V v255 52.1017 / 5.12564 36187 ttn.v3 0.674km -120 -10.8 867.1MHz, SF9BW125, 4/5CR
- -114 -13.25 867.1MHz, SF9BW125, 4/5CR
2026-05-06 12:29:56 14.125°C 91.9375% 3.38V v255 52.1017 / 5.12564 36185 ttn.v3 - -118 -4.5 867.9MHz, SF9BW125, 4/5CR
2.001km -108 -6 867.9MHz, SF9BW125, 4/5CR
2026-05-06 11:58:04 15.4375°C 46.1875% 3.38V v255 52.1017 / 5.12564 36183 ttn.v3 0.674km -120 -14.2 867.7MHz, SF9BW125, 4/5CR
2026-05-06 11:10:16 14.25°C 85.0625% 3.38V v255 52.1017 / 5.12564 36180 ttn.v3 2.001km -103 -4 868.1MHz, SF9BW125, 4/5CR
2026-05-06 10:54:20 13.6875°C 88.9375% 3.38V v255 52.1017 / 5.12564 36179 ttn.v3 0.674km -119 -11.2 867.3MHz, SF9BW125, 4/5CR
2026-05-06 10:22:29 13.4375°C 45.75% 3.38V v255 52.1017 / 5.12564 36177 ttn.v3 0.674km -121 -11.8 867.1MHz, SF9BW125, 4/5CR
2026-05-06 09:50:38 12.875°C 45.75% 3.38V v255 52.1017 / 5.12564 36175 ttn.v3 - -122 -10.25 867.9MHz, SF9BW125, 4/5CR
2026-05-06 09:34:42 12.875°C 45.6875% 3.38V v255 52.1017 / 5.12564 36174 ttn.v3 0.674km -121 -10.8 868.1MHz, SF9BW125, 4/5CR
2026-05-06 08:46:56 12°C 45.625% 3.38V v255 52.1017 / 5.12564 36171 ttn.v3 0.674km -119 -12 867.5MHz, SF9BW125, 4/5CR
2026-05-06 08:15:06 11.3125°C 45.5625% 3.39V v255 52.1017 / 5.12564 36169 ttn.v3 0.674km -118 -11.5 867.3MHz, SF9BW125, 4/5CR
2026-05-06 07:59:11 11.125°C 45.5% 3.38V v255 52.1017 / 5.12564 36168 ttn.v3 2.001km -108 -9 868.1MHz, SF9BW125, 4/5CR
2026-05-06 07:43:16 10.9375°C 45.5% 3.38V v255 52.1017 / 5.12564 36167 ttn.v3 2.001km -109 -6 867.1MHz, SF9BW125, 4/5CR
0.674km -120 -10 867.1MHz, SF9BW125, 4/5CR
- -119 -10.25 867.1MHz, SF9BW125, 4/5CR
2026-05-06 07:27:22 10.6875°C 45.5% 3.39V v255 52.1017 / 5.12564 36166 ttn.v3 0.674km -118 -12.8 868.5MHz, SF9BW125, 4/5CR
2026-05-06 07:11:27 10.5°C 45.4375% 3.38V v255 52.1017 / 5.12564 36165 ttn.v3 0.674km -121 -13.2 867.9MHz, SF9BW125, 4/5CR
2026-05-06 06:39:37 10.25°C 45.4375% 3.39V v255 52.1017 / 5.12564 36163 ttn.v3 2.001km -107 -5.25 867.7MHz, SF9BW125, 4/5CR
2026-05-06 06:23:43 10.1875°C 45.4375% 3.38V v255 52.1017 / 5.12564 36162 ttn.v3 2.001km -107 -6.75 868.1MHz, SF9BW125, 4/5CR
- -122 -12.5 868.1MHz, SF9BW125, 4/5CR
0.674km -121 -13.2 868.1MHz, SF9BW125, 4/5CR
2026-05-06 06:07:48 10.1875°C 45.4375% 3.38V v255 52.1017 / 5.12564 36161 ttn.v3 0.674km -118 -11 867.5MHz, SF9BW125, 4/5CR
2026-05-06 05:35:59 10.25°C 45.4375% 3.38V v255 52.1017 / 5.12564 36159 ttn.v3 0.674km -119 -10.2 867.3MHz, SF9BW125, 4/5CR
2026-05-06 05:04:09 10.25°C 45.4375% 3.38V v255 52.1017 / 5.12564 36157 ttn.v3 - -119 -9.25 867.1MHz, SF9BW125, 4/5CR
0.674km -121 -9.8 867.1MHz, SF9BW125, 4/5CR
2026-05-06 04:32:20 10.25°C 45.4375% 3.39V v255 52.1017 / 5.12564 36155 ttn.v3 2.001km -111 -10.75 867.9MHz, SF9BW125, 4/5CR
0.674km -119 -14.8 867.9MHz, SF9BW125, 4/5CR
2026-05-06 04:00:30 10.375°C 45.4375% 3.38V v255 52.1017 / 5.12564 36153 ttn.v3 2.001km -104 -6.5 867.7MHz, SF9BW125, 4/5CR
0.674km -120 -12.5 867.7MHz, SF9BW125, 4/5CR
- -121 -12.75 867.7MHz, SF9BW125, 4/5CR
2026-05-06 03:28:41 10.5°C 45.4375% 3.39V v255 52.1017 / 5.12564 36151 ttn.v3 0.674km -118 -13.8 867.5MHz, SF9BW125, 4/5CR
2026-05-06 02:56:51 10.5°C 45.4375% 3.38V v255 52.1017 / 5.12564 36149 ttn.v3 0.674km -118 -9.5 867.3MHz, SF9BW125, 4/5CR
2026-05-06 02:25:02 10.5°C 45.4375% 3.38V v255 52.1017 / 5.12564 36147 ttn.v3 2.001km -106 -5 867.1MHz, SF9BW125, 4/5CR
- -121 -7 867.1MHz, SF9BW125, 4/5CR
0.674km -120 -11 867.1MHz, SF9BW125, 4/5CR
2026-05-06 01:53:12 10.5625°C 45.4375% 3.38V v255 52.1017 / 5.12564 36145 ttn.v3 2.001km -107 -11.25 867.9MHz, SF9BW125, 4/5CR
2026-05-06 01:37:17 10.625°C 45.5% 3.38V v255 52.1017 / 5.12564 36144 ttn.v3 - -123 -13.25 868.1MHz, SF9BW125, 4/5CR
2026-05-06 00:49:33 10.5625°C 45.4375% 3.38V v255 52.1017 / 5.12564 36141 ttn.v3 0.674km -120 -13.8 867.5MHz, SF9BW125, 4/5CR
2026-05-06 00:17:43 10.375°C 45.4375% 3.38V v255 52.1017 / 5.12564 36139 ttn.v3 0.674km -120 -11.2 867.3MHz, SF9BW125, 4/5CR
2026-05-05 23:45:54 10.0625°C 45.4375% 3.38V v255 52.1017 / 5.12564 36137 ttn.v3 2.001km -107 2.75 867.1MHz, SF9BW125, 4/5CR
0.674km -121 -9 867.1MHz, SF9BW125, 4/5CR
- -116 -12 867.1MHz, SF9BW125, 4/5CR
2026-05-05 22:42:14 11.125°C 45.5% 3.38V v255 52.1017 / 5.12564 36133 ttn.v3 0.674km -120 -12 867.7MHz, SF9BW125, 4/5CR
2026-05-05 22:26:19 11.5625°C 45.5625% 3.38V v255 52.1017 / 5.12564 36132 ttn.v3 - -119 -7.25 868.1MHz, SF9BW125, 4/5CR
0.674km -121 -12.8 868.1MHz, SF9BW125, 4/5CR
2026-05-05 22:10:24 11.75°C 45.625% 3.38V v255 52.1017 / 5.12564 36131 ttn.v3 0.674km -119 -14 867.5MHz, SF9BW125, 4/5CR
2026-05-05 21:54:29 11.8125°C 45.625% 3.38V v255 52.1017 / 5.12564 36130 ttn.v3 2.001km -96 -12.5 868.5MHz, SF9BW125, 4/5CR
2026-05-05 21:38:34 11.8125°C 45.625% 3.38V v255 52.1017 / 5.12564 36129 ttn.v3 0.674km -120 -9.5 867.3MHz, SF9BW125, 4/5CR
2026-05-05 21:06:43 12.1875°C 45.625% 3.38V v255 52.1017 / 5.12564 36127 ttn.v3 2.001km -104 -8.5 867.1MHz, SF9BW125, 4/5CR
0.674km -120 -10 867.1MHz, SF9BW125, 4/5CR
2026-05-05 20:50:48 12.4375°C 45.6875% 3.38V v255 52.1017 / 5.12564 36126 ttn.v3 0.674km -120 -14.2 868.1MHz, SF9BW125, 4/5CR
2026-05-05 20:34:52 12.625°C 45.6875% 3.38V v255 52.1017 / 5.12564 36125 ttn.v3 2.001km -109 -1.75 867.9MHz, SF9BW125, 4/5CR
2026-05-05 20:03:01 13.6875°C 45.8125% 3.38V v255 52.1017 / 5.12564 36123 ttn.v3 2.001km -109 -6 867.7MHz, SF9BW125, 4/5CR
0.674km -119 -11.5 867.7MHz, SF9BW125, 4/5CR
2026-05-05 19:31:09 15.125°C 60.8125% 3.38V v255 52.1017 / 5.12564 36121 ttn.v3 0.674km -119 -12 867.5MHz, SF9BW125, 4/5CR
2026-05-05 18:59:17 14.75°C 68% 3.38V v255 52.1017 / 5.12564 36119 ttn.v3 - -125 -8.5 867.3MHz, SF9BW125, 4/5CR
0.674km -119 -10.2 867.3MHz, SF9BW125, 4/5CR
2026-05-05 18:27:24 15.375°C 65.3125% 3.38V v255 52.1017 / 5.12564 36117 ttn.v3 2.001km -103 -7.75 867.1MHz, SF9BW125, 4/5CR
0.674km -121 -12 867.1MHz, SF9BW125, 4/5CR
- -114 -13.75 867.1MHz, SF9BW125, 4/5CR
2026-05-05 17:39:35 16.875°C 117.5% 3.38V v255 52.1017 / 5.12564 36114 ttn.v3 2.001km -105 -2.25 868.1MHz, SF9BW125, 4/5CR
2026-05-05 17:23:38 17.0625°C -0.3125% 3.38V v255 52.1017 / 5.12564 36113 ttn.v3 2.001km -109 -9.25 867.7MHz, SF9BW125, 4/5CR
0.674km -120 -11.2 867.7MHz, SF9BW125, 4/5CR
2026-05-05 17:07:41 16.5625°C 97.5% 3.38V v255 52.1017 / 5.12564 36112 ttn.v3 0.674km -119 -13.8 868.5MHz, SF9BW125, 4/5CR
2026-05-05 16:19:50 17.375°C 113.688% 3.38V v255 52.1017 / 5.12564 36109 ttn.v3 0.674km -120 -12 867.3MHz, SF9BW125, 4/5CR
2026-05-05 15:47:56 18.125°C 0.9375% 3.38V v255 52.1017 / 5.12564 36107 ttn.v3 0.674km -120 -9.2 867.1MHz, SF9BW125, 4/5CR
- -114 -15.5 867.1MHz, SF9BW125, 4/5CR
2026-05-05 15:16:02 17.875°C 95.6875% 3.38V v255 52.1017 / 5.12564 36105 ttn.v3 2.001km -107 -7.5 867.9MHz, SF9BW125, 4/5CR
0.674km -120 -12.8 867.9MHz, SF9BW125, 4/5CR
2026-05-05 14:44:08 16.5625°C 72.25% 3.38V v255 52.1017 / 5.12564 36103 ttn.v3 0.674km -119 -11.8 867.7MHz, SF9BW125, 4/5CR
2026-05-05 14:28:12 15.8125°C 61.9375% 3.38V v255 52.1017 / 5.12564 36102 ttn.v3 0.674km -120 -12.2 868.1MHz, SF9BW125, 4/5CR
2026-05-05 14:12:15 15.3125°C 46% 3.38V v255 52.1017 / 5.12564 36101 ttn.v3 0.674km -118 -12.2 867.5MHz, SF9BW125, 4/5CR
2026-05-05 13:56:19 14.4375°C 45.875% 3.38V v255 52.1017 / 5.12564 36100 ttn.v3 0.674km -120 -10.5 868.5MHz, SF9BW125, 4/5CR
2026-05-05 13:40:24 13.125°C 45.75% 3.38V v255 52.1017 / 5.12564 36099 ttn.v3 0.674km -120 -12.8 867.3MHz, SF9BW125, 4/5CR
2026-05-05 13:08:33 12.75°C 45.6875% 3.38V v255 52.1017 / 5.12564 36097 ttn.v3 0.674km -121 -9 867.1MHz, SF9BW125, 4/5CR
2026-05-05 12:53:52 12.8125°C 45.6875% 3.38V v255 52.1017 / 5.12564 36096 ttn.v3 0.674km -121 -11.5 868.1MHz, SF12BW125, 4/5CR
- -115 -18 868.1MHz, SF12BW125, 4/5CR
2026-05-05 12:36:46 12.5625°C 45.6875% 3.38V v255 52.1017 / 5.12552 36095 ttn.v3 0.677km -121 -12 867.9MHz, SF9BW125, 4/5CR
2026-05-05 12:04:55 12.0625°C 45.625% 3.38V v255 52.1017 / 5.12552 36093 ttn.v3 0.677km -120 -13.2 867.7MHz, SF9BW125, 4/5CR
2026-05-05 11:01:14 11.75°C 45.625% 3.38V v255 52.1017 / 5.12552 36089 ttn.v3 0.677km -118 -10.8 867.3MHz, SF9BW125, 4/5CR
2026-05-05 09:57:34 11.6875°C 45.5625% 3.38V v255 52.1017 / 5.12552 36085 ttn.v3 2.009km -105 0.25 867.9MHz, SF9BW125, 4/5CR
0.677km -121 -12.5 867.9MHz, SF9BW125, 4/5CR
2026-05-05 09:41:39 11.375°C 45.5625% 3.38V v255 52.1017 / 5.12552 36084 ttn.v3 2.009km -102 -8.5 868.1MHz, SF9BW125, 4/5CR
2026-05-05 09:25:44 11.0625°C 45.5% 3.38V v255 52.1017 / 5.12552 36083 ttn.v3 2.009km -107 -5 867.7MHz, SF9BW125, 4/5CR
0.677km -119 -11.8 867.7MHz, SF9BW125, 4/5CR
2026-05-05 08:37:59 10.5625°C 45.4375% 3.38V v255 52.1017 / 5.12552 36080 ttn.v3 0.677km -118 -11.2 868.3MHz, SF9BW125, 4/5CR
2026-05-05 08:06:09 10.375°C 45.4375% 3.38V v255 52.1017 / 5.12552 36078 ttn.v3 0.677km -121 -11.5 868.1MHz, SF9BW125, 4/5CR
2026-05-05 07:50:14 10.3125°C 45.4375% 3.39V v255 52.1017 / 5.12552 36077 ttn.v3 2.009km -105 -4.5 867.1MHz, SF9BW125, 4/5CR
0.677km -120 -12.2 867.1MHz, SF9BW125, 4/5CR
- -116 -14.25 867.1MHz, SF9BW125, 4/5CR
2026-05-05 07:34:20 10.3125°C 45.4375% 3.39V v255 52.1017 / 5.12552 36076 ttn.v3 0.677km -120 -13.2 868.5MHz, SF9BW125, 4/5CR

Message count: 200
Node count: 1

Messages per node

Number of messages in list aboveNodes
200

Statistics per gateway

GatewayNumber of messagesNumber of nodesNodes
1651 (0.677km)
911 (2.009km)
221
81
71

Filter by dataset